createdAt,value
2018-05-12T00:02:15.092Z,100158.45
2018-05-12T00:04:42.635Z,100156.55
2018-05-12T00:07:10.169Z,100163.38
2018-05-12T00:09:37.695Z,100155.48
2018-05-12T00:12:05.198Z,100155.73
2018-05-12T00:14:32.716Z,100154.63
2018-05-12T00:17:00.230Z,100158.45
2018-05-12T00:19:27.765Z,100157.22
2018-05-12T00:21:55.265Z,100160.23
2018-05-12T00:24:22.850Z,100161.70
2018-05-12T00:26:50.406Z,100156.81
2018-05-12T00:29:17.951Z,100152.17
2018-05-12T00:31:45.516Z,100151.89
2018-05-12T00:34:13.017Z,100143.61
2018-05-12T00:36:40.570Z,100141.15
2018-05-12T00:39:08.091Z,100140.36
2018-05-12T00:41:35.647Z,100141.14
2018-05-12T00:44:03.157Z,100135.97
2018-05-12T00:46:30.710Z,100137.17
2018-05-12T00:48:58.204Z,100135.75
2018-05-12T00:51:25.754Z,100130.95
2018-05-12T00:53:53.271Z,100129.97
2018-05-12T00:56:20.797Z,100131.84
2018-05-12T00:58:48.318Z,100131.91
2018-05-12T01:01:15.813Z,100131.50
2018-05-12T01:03:43.384Z,100131.93
2018-05-12T01:06:10.946Z,100122.53
2018-05-12T01:08:38.529Z,100127.97
2018-05-12T01:11:06.062Z,100133.67
2018-05-12T01:13:33.627Z,100135.80
2018-05-12T01:16:01.081Z,100130.77
2018-05-12T01:18:29.362Z,100126.30
2018-05-12T01:20:56.866Z,100122.61
2018-05-12T01:23:24.373Z,100122.48
2018-05-12T01:25:52.097Z,100122.33
2018-05-12T01:28:19.649Z,100123.12
2018-05-12T01:30:47.167Z,100120.92
2018-05-12T01:33:14.699Z,100122.81
2018-05-12T01:35:42.253Z,100119.54
2018-05-12T01:38:09.828Z,100117.48
2018-05-12T01:40:37.367Z,100120.58
2018-05-12T01:43:04.927Z,100118.40
2018-05-12T01:45:32.418Z,100124.78
2018-05-12T01:47:59.957Z,100113.36
2018-05-12T01:50:27.672Z,100122.59
2018-05-12T01:52:55.245Z,100125.06
2018-05-12T01:55:22.806Z,100123.54
2018-05-12T01:57:50.386Z,100126.93
2018-05-12T02:00:17.890Z,100119.46
2018-05-12T02:02:45.427Z,100121.47
2018-05-12T02:05:12.975Z,100122.16
2018-05-12T02:07:40.536Z,100119.55
2018-05-12T02:10:08.070Z,100120.50
2018-05-12T02:12:35.615Z,100125.81
2018-05-12T02:15:03.166Z,100116.69
2018-05-12T02:17:30.679Z,100119.22
2018-05-12T02:19:58.247Z,100119.97
2018-05-12T02:22:25.771Z,100118.75
2018-05-12T02:24:53.351Z,100114.80
2018-05-12T02:27:20.933Z,100120.95
2018-05-12T02:29:48.507Z,100124.34
2018-05-12T02:32:16.046Z,100115.47
2018-05-12T02:34:43.601Z,100120.27
2018-05-12T02:37:11.148Z,100119.45
2018-05-12T02:39:38.638Z,100121.34
2018-05-12T02:42:06.170Z,100118.89
2018-05-12T02:44:33.719Z,100115.86
2018-05-12T02:47:01.307Z,100114.54
2018-05-12T02:49:28.839Z,100111.12
2018-05-12T02:51:56.365Z,100116.89
2018-05-12T02:54:23.887Z,100123.53
2018-05-12T02:56:51.438Z,100125.23
2018-05-12T02:59:18.944Z,100124.00
2018-05-12T03:01:46.498Z,100117.84
2018-05-12T03:04:14.050Z,100126.38
2018-05-12T03:06:41.619Z,100117.92
2018-05-12T03:09:09.143Z,100121.38
2018-05-12T03:11:36.687Z,100131.34
2018-05-12T03:14:04.207Z,100126.39
2018-05-12T03:16:31.688Z,100124.56
2018-05-12T03:18:59.216Z,100122.00
2018-05-12T03:21:26.782Z,100122.30
2018-05-12T03:23:54.351Z,100114.45
2018-05-12T03:26:21.855Z,100123.23
2018-05-12T03:28:49.725Z,100120.61
2018-05-12T03:31:17.247Z,100118.28
2018-05-12T03:33:44.773Z,100117.81
2018-05-12T03:36:12.292Z,100119.58
2018-05-12T03:38:39.864Z,100121.80
2018-05-12T03:41:07.376Z,100118.45
2018-05-12T03:43:50.036Z,100118.78
2018-05-12T03:46:17.593Z,100117.57
2018-05-12T03:48:45.131Z,100117.66
2018-05-12T03:51:12.654Z,100115.51
2018-05-12T03:53:40.386Z,100124.23
2018-05-12T03:56:07.961Z,100121.52
2018-05-12T03:58:35.517Z,100122.34
2018-05-12T04:01:03.060Z,100134.00
2018-05-12T04:03:30.614Z,100129.81
2018-05-12T04:06:09.927Z,100128.63
2018-05-12T04:08:49.404Z,100130.84
2018-05-12T04:11:28.746Z,100135.30
2018-05-12T04:13:56.268Z,100133.17
2018-05-12T04:16:24.658Z,100127.20
2018-05-12T04:18:52.131Z,100132.88
2018-05-12T04:21:19.685Z,100132.55
2018-05-12T04:23:47.158Z,100135.26
2018-05-12T04:26:14.694Z,100133.52
2018-05-12T04:28:42.227Z,100134.73
2018-05-12T04:31:09.781Z,100133.86
2018-05-12T04:33:37.341Z,100134.17
2018-05-12T04:36:04.889Z,100133.93
2018-05-12T04:38:32.399Z,100133.02
2018-05-12T04:40:59.917Z,100130.48
2018-05-12T04:43:27.458Z,100135.48
2018-05-12T04:45:54.996Z,100132.89
2018-05-12T04:48:22.517Z,100135.27
2018-05-12T04:50:50.098Z,100128.72
2018-05-12T04:53:17.659Z,100124.41
2018-05-12T04:55:45.175Z,100121.71
2018-05-12T04:58:12.733Z,100127.77
2018-05-12T05:00:40.249Z,100123.33
2018-05-12T05:03:07.801Z,100125.36
2018-05-12T05:05:35.302Z,100122.31
2018-05-12T05:08:02.870Z,100124.41
2018-05-12T05:10:30.408Z,100125.86
2018-05-12T05:12:57.988Z,100125.92
2018-05-12T05:15:25.519Z,100137.03
2018-05-12T05:17:53.034Z,100126.11
2018-05-12T05:20:20.552Z,100132.81
2018-05-12T05:22:48.461Z,100138.41
2018-05-12T05:25:16.021Z,100138.97
2018-05-12T05:27:43.555Z,100134.67
2018-05-12T05:30:11.107Z,100131.80
2018-05-12T05:32:38.614Z,100127.79
2018-05-12T05:35:06.168Z,100132.16
2018-05-12T05:37:33.781Z,100137.89
2018-05-12T05:40:01.370Z,100138.43
2018-05-12T05:42:28.887Z,100134.98
2018-05-12T05:44:56.407Z,100131.23
2018-05-12T05:47:23.949Z,100138.78
2018-05-12T05:49:51.450Z,100146.02
2018-05-12T05:52:18.988Z,100138.05
2018-05-12T05:54:46.498Z,100135.86
2018-05-12T05:57:14.070Z,100138.30
2018-05-12T05:59:41.588Z,100136.42
2018-05-12T06:02:09.095Z,100136.88
2018-05-12T06:04:36.585Z,100134.22
2018-05-12T06:07:04.265Z,100139.26
2018-05-12T06:09:31.903Z,100136.44
2018-05-12T06:11:59.631Z,100139.94
2018-05-12T06:14:30.939Z,100140.91
2018-05-12T06:16:58.485Z,100141.08
2018-05-12T06:19:26.324Z,100146.55
2018-05-12T06:21:53.877Z,100143.66
2018-05-12T06:24:21.399Z,100138.20
2018-05-12T06:26:48.953Z,100130.61
2018-05-12T06:29:16.512Z,100130.02
2018-05-12T06:31:44.055Z,100138.34
2018-05-12T06:34:11.578Z,100138.73
2018-05-12T06:36:40.049Z,100137.83
2018-05-12T06:39:08.585Z,100140.97
2018-05-12T06:41:36.110Z,100143.84
2018-05-12T06:44:03.666Z,100139.81
2018-05-12T06:46:31.173Z,100133.98
2018-05-12T06:48:58.693Z,100139.19
2018-05-12T06:51:26.269Z,100133.69
2018-05-12T06:53:53.859Z,100136.44
2018-05-12T06:56:21.367Z,100136.41
2018-05-12T06:58:48.922Z,100135.47
2018-05-12T07:01:16.519Z,100138.61
2018-05-12T07:03:44.060Z,100134.50
2018-05-12T07:06:11.532Z,100138.30
2018-05-12T07:08:39.116Z,100126.46
2018-05-12T07:11:06.651Z,100131.36
2018-05-12T07:13:34.233Z,100124.65
2018-05-12T07:16:01.741Z,100126.23
2018-05-12T07:18:29.339Z,100131.41
2018-05-12T07:20:56.857Z,100126.50
2018-05-12T07:23:24.418Z,100123.80
2018-05-12T07:25:51.931Z,100120.36
2018-05-12T07:28:19.491Z,100127.23
2018-05-12T07:30:47.054Z,100122.59
2018-05-12T07:33:14.647Z,100125.64
2018-05-12T07:35:42.190Z,100127.66
2018-05-12T07:38:09.713Z,100122.12
2018-05-12T07:40:37.446Z,100126.95
2018-05-12T07:43:04.938Z,100122.97
2018-05-12T07:45:32.533Z,100124.43
2018-05-12T07:47:59.992Z,100125.77
2018-05-12T07:50:27.531Z,100122.45
2018-05-12T07:52:54.993Z,100117.76
2018-05-12T07:55:22.481Z,100115.87
2018-05-12T07:57:50.188Z,100113.91
2018-05-12T08:00:17.666Z,100107.97
2018-05-12T08:02:45.218Z,100110.53
2018-05-12T08:05:12.760Z,100102.11
2018-05-12T08:07:40.274Z,100101.61
2018-05-12T08:10:07.800Z,100096.28
2018-05-12T08:12:35.482Z,100096.85
2018-05-12T08:15:03.031Z,100097.83
2018-05-12T08:17:30.513Z,100099.67
2018-05-12T08:19:57.998Z,100089.28
2018-05-12T08:22:25.461Z,100094.80
2018-05-12T08:24:52.966Z,100087.42
2018-05-12T08:27:20.452Z,100092.98
2018-05-12T08:29:48.224Z,100092.48
2018-05-12T08:32:15.928Z,100085.98
2018-05-12T08:34:43.501Z,100084.97
2018-05-12T08:37:10.989Z,100087.44
2018-05-12T08:39:38.829Z,100087.02
2018-05-12T08:42:06.415Z,100080.80
2018-05-12T08:44:34.017Z,100078.10
2018-05-12T08:47:01.519Z,100078.20
2018-05-12T08:49:29.090Z,100074.77
2018-05-12T08:51:56.646Z,100070.99
2018-05-12T08:54:24.186Z,100077.82
2018-05-12T08:56:51.705Z,100072.03
2018-05-12T08:59:22.768Z,100067.66
2018-05-12T09:01:51.538Z,100065.47
2018-05-12T09:04:19.078Z,100061.06
2018-05-12T09:06:46.635Z,100062.15
2018-05-12T09:09:14.509Z,100059.40
2018-05-12T09:11:42.054Z,100059.05
2018-05-12T09:14:09.559Z,100057.22
2018-05-12T09:16:37.146Z,100058.52
2018-05-12T09:19:04.691Z,100059.92
2018-05-12T09:21:32.210Z,100060.37
2018-05-12T09:23:59.678Z,100052.64
2018-05-12T09:26:27.515Z,100054.83
2018-05-12T09:28:56.066Z,100056.17
2018-05-12T09:31:23.581Z,100055.25
2018-05-12T09:33:51.056Z,100053.81
2018-05-12T09:36:18.548Z,100052.73
2018-05-12T09:38:46.015Z,100048.97
2018-05-12T09:41:13.524Z,100046.64
2018-05-12T09:43:41.045Z,100040.25
2018-05-12T09:46:08.757Z,100038.66
2018-05-12T09:48:36.250Z,100037.23
2018-05-12T09:51:04.192Z,100033.97
2018-05-12T09:53:31.671Z,100035.05
2018-05-12T09:55:59.162Z,100031.45
2018-05-12T09:58:26.687Z,100023.81
2018-05-12T10:00:54.218Z,100023.20
2018-05-12T10:03:21.709Z,100024.27
2018-05-12T10:05:49.293Z,100018.40
2018-05-12T10:08:16.870Z,100007.38
2018-05-12T10:10:44.464Z,100007.36
2018-05-12T10:13:12.376Z,100014.98
2018-05-12T10:15:39.881Z,100004.23
2018-05-12T10:18:07.410Z,100007.86
2018-05-12T10:20:34.941Z,100006.49
2018-05-12T10:23:02.451Z,100007.13
2018-05-12T10:25:30.174Z,99998.88
2018-05-12T10:27:57.695Z,99997.48
2018-05-12T10:30:25.210Z,99996.08
2018-05-12T10:32:52.759Z,99995.45
2018-05-12T10:35:20.304Z,99991.01
2018-05-12T10:37:47.891Z,99990.70
2018-05-12T10:40:15.458Z,99989.09
2018-05-12T10:42:43.097Z,99985.85
2018-05-12T10:47:45.382Z,99975.76
2018-05-12T10:50:13.692Z,99976.28
2018-05-12T10:52:41.239Z,99969.36
2018-05-12T10:55:08.805Z,99973.97
2018-05-12T10:57:36.458Z,99971.30
2018-05-12T11:00:03.966Z,99962.86
2018-05-12T11:02:31.493Z,99956.74
2018-05-12T11:04:58.999Z,99957.80
2018-05-12T11:07:26.547Z,99953.00
2018-05-12T11:09:54.044Z,99960.45
2018-05-12T11:12:21.659Z,99954.47
2018-05-12T11:14:49.157Z,99950.45
2018-05-12T11:17:16.769Z,99952.72
2018-05-12T11:19:44.433Z,99951.91
2018-05-12T11:22:11.991Z,99946.44
2018-05-12T11:24:39.467Z,99937.86
2018-05-12T11:27:07.013Z,99934.00
2018-05-12T11:29:34.506Z,99928.55
2018-05-12T11:32:02.002Z,99936.34
2018-05-12T11:34:29.478Z,99925.16
2018-05-12T11:36:56.975Z,99923.63
2018-05-12T11:39:24.462Z,99916.75
2018-05-12T11:41:51.964Z,99916.63
2018-05-12T11:44:19.529Z,99911.80
2018-05-12T11:47:00.711Z,99913.87
2018-05-12T11:49:29.087Z,99909.42
2018-05-12T11:51:56.654Z,99906.25
2018-05-12T11:56:59.037Z,99902.72
2018-05-12T11:59:27.090Z,99904.06
2018-05-12T12:01:54.605Z,99899.30
2018-05-12T12:04:22.110Z,99901.73
2018-05-12T12:06:49.630Z,99904.84
2018-05-12T12:09:17.203Z,99892.00
2018-05-12T12:11:44.778Z,99894.07
2018-05-12T12:14:12.272Z,99892.87
2018-05-12T12:16:39.859Z,99890.29
2018-05-12T12:19:07.354Z,99888.83
2018-05-12T12:21:35.459Z,99885.63
2018-05-12T12:24:02.955Z,99883.75
2018-05-12T12:26:30.958Z,99885.69
2018-05-12T12:28:58.497Z,99879.07
2018-05-12T12:31:25.973Z,99875.52
2018-05-12T12:33:53.481Z,99873.67
2018-05-12T12:36:20.997Z,99874.95
2018-05-12T12:38:48.618Z,99877.98
2018-05-12T12:41:16.186Z,99869.35
2018-05-12T12:43:43.810Z,99863.43
2018-05-12T12:46:11.370Z,99868.33
2018-05-12T12:48:38.874Z,99866.23
2018-05-12T12:51:06.440Z,99861.56
2018-05-12T12:53:33.978Z,99856.98
2018-05-12T12:56:01.496Z,99858.77
2018-05-12T12:58:29.084Z,99863.53
2018-05-12T13:00:56.570Z,99861.11
2018-05-12T13:03:24.917Z,99853.84
2018-05-12T13:05:52.454Z,99850.34
2018-05-12T13:08:20.074Z,99847.83
2018-05-12T13:10:47.542Z,99849.11
2018-05-12T13:13:15.093Z,99849.97
2018-05-12T13:15:42.593Z,99844.85
2018-05-12T13:18:10.165Z,99843.22
2018-05-12T13:20:37.809Z,99834.00
2018-05-12T13:23:05.376Z,99835.80
2018-05-12T13:25:32.988Z,99828.20
2018-05-12T13:28:00.549Z,99831.27
2018-05-12T13:30:28.127Z,99832.23
2018-05-12T13:32:55.689Z,99822.73
2018-05-12T13:35:23.963Z,99825.18
2018-05-12T13:37:51.455Z,99828.55
2018-05-12T13:40:19.025Z,99819.30
2018-05-12T13:42:46.568Z,99819.70
2018-05-12T13:45:14.162Z,99815.05
2018-05-12T13:47:41.737Z,99810.37
2018-05-12T13:50:09.341Z,99807.98
2018-05-12T13:52:36.832Z,99808.58
2018-05-12T13:55:04.418Z,99814.30
2018-05-12T13:57:32.123Z,99808.60
2018-05-12T13:59:59.646Z,99802.07
2018-05-12T14:02:27.199Z,99801.37
2018-05-12T14:04:54.758Z,99796.60
2018-05-12T14:07:22.317Z,99794.22
2018-05-12T14:09:50.685Z,99792.98
2018-05-12T14:12:18.268Z,99793.30
2018-05-12T14:14:45.803Z,99789.48
2018-05-12T14:17:14.353Z,99785.38
2018-05-12T14:19:41.893Z,99780.95
2018-05-12T14:22:09.451Z,99786.77
2018-05-12T14:24:37.190Z,99785.73
2018-05-12T14:27:04.709Z,99778.13
2018-05-12T14:29:32.334Z,99780.34
2018-05-12T14:31:59.867Z,99778.16
2018-05-12T14:34:27.453Z,99769.76
2018-05-12T14:36:54.963Z,99768.34
2018-05-12T14:39:22.621Z,99761.53
2018-05-12T14:41:50.098Z,99764.44
2018-05-12T14:44:17.634Z,99762.13
2018-05-12T14:46:45.209Z,99756.31
2018-05-12T14:49:12.751Z,99752.85
2018-05-12T14:51:40.259Z,99751.73
2018-05-12T14:54:07.765Z,99751.70
2018-05-12T14:56:35.283Z,99755.27
2018-05-12T14:59:02.805Z,99754.11
2018-05-12T15:01:30.282Z,99744.75
2018-05-12T15:03:58.523Z,99745.33
2018-05-12T15:06:26.043Z,99740.69
2018-05-12T15:08:53.553Z,99734.72
2018-05-12T15:11:21.104Z,99737.65
2018-05-12T15:13:48.611Z,99737.39
2018-05-12T15:16:16.143Z,99730.66
2018-05-12T15:18:43.820Z,99729.67
2018-05-12T15:21:11.395Z,99728.23
2018-05-12T15:23:38.866Z,99721.38
2018-05-12T15:26:06.388Z,99720.55
2018-05-12T15:28:33.938Z,99719.33
2018-05-12T15:31:01.489Z,99713.50
2018-05-12T15:33:29.034Z,99711.94
2018-05-12T15:35:56.606Z,99708.69
2018-05-12T15:38:24.170Z,99703.90
2018-05-12T15:40:51.677Z,99702.66
2018-05-12T15:43:19.206Z,99701.66
2018-05-12T15:45:46.783Z,99694.51
2018-05-12T15:48:14.300Z,99699.08
2018-05-12T15:50:41.856Z,99693.80
2018-05-12T15:53:09.350Z,99692.91
2018-05-12T15:55:36.921Z,99690.03
2018-05-12T15:58:04.445Z,99690.66
2018-05-12T16:00:31.981Z,99683.84
2018-05-12T16:02:59.519Z,99678.66
2018-05-12T16:05:26.982Z,99683.67
2018-05-12T16:07:54.462Z,99682.20
2018-05-12T16:10:22.198Z,99675.88
2018-05-12T16:12:49.726Z,99668.63
2018-05-12T16:15:17.243Z,99670.23
2018-05-12T16:17:44.722Z,99662.89
2018-05-12T16:20:12.260Z,99660.14
2018-05-12T16:22:39.780Z,99658.97
2018-05-12T16:25:07.803Z,99657.69
2018-05-12T16:27:36.274Z,99651.66
2018-05-12T16:30:03.807Z,99646.45
2018-05-12T16:32:31.407Z,99646.04
2018-05-12T16:34:58.968Z,99646.08
2018-05-12T16:37:26.566Z,99638.20
2018-05-12T16:39:54.051Z,99639.43
2018-05-12T16:42:21.570Z,99633.44
2018-05-12T16:44:49.066Z,99632.55
2018-05-12T16:47:16.586Z,99637.16
2018-05-12T16:49:44.075Z,99627.76
2018-05-12T16:52:11.595Z,99628.50
2018-05-12T16:54:39.086Z,99622.66
2018-05-12T16:57:06.624Z,99626.96
2018-05-12T16:59:34.205Z,99619.45
2018-05-12T17:02:01.718Z,99619.13
2018-05-12T17:04:29.256Z,99620.13
2018-05-12T17:06:56.769Z,99626.08
2018-05-12T17:09:24.229Z,99618.06
2018-05-12T17:11:51.750Z,99609.80
2018-05-12T17:14:19.246Z,99613.13
2018-05-12T17:16:46.802Z,99610.14
2018-05-12T17:19:14.314Z,99616.66
2018-05-12T17:21:41.870Z,99614.38
2018-05-12T17:24:09.366Z,99610.19
2018-05-12T17:26:36.889Z,99607.84
2018-05-12T17:29:04.372Z,99605.79
2018-05-12T17:31:31.940Z,99604.23
2018-05-12T17:33:59.458Z,99605.22
2018-05-12T17:36:26.972Z,99604.06
2018-05-12T17:38:54.447Z,99599.11
2018-05-12T17:41:21.983Z,99590.82
2018-05-12T17:43:49.568Z,99595.34
2018-05-12T17:46:17.250Z,99591.41
2018-05-12T17:48:45.478Z,99585.17
2018-05-12T17:51:13.037Z,99589.58
2018-05-12T17:53:40.519Z,99594.92
2018-05-12T17:56:08.034Z,99590.45
2018-05-12T17:58:35.591Z,99595.14
2018-05-12T18:01:03.096Z,99597.14
2018-05-12T18:03:30.631Z,99593.44
2018-05-12T18:05:58.227Z,99588.08
2018-05-12T18:08:25.845Z,99585.17
2018-05-12T18:10:53.710Z,99577.16
2018-05-12T18:13:21.302Z,99580.80
2018-05-12T18:15:48.828Z,99582.58
2018-05-12T18:18:16.587Z,99580.63
2018-05-12T18:20:44.142Z,99581.65
2018-05-12T18:23:11.660Z,99580.33
2018-05-12T18:25:39.142Z,99579.61
2018-05-12T18:28:06.737Z,99575.11
2018-05-12T18:30:34.274Z,99580.06
2018-05-12T18:33:01.761Z,99577.83
2018-05-12T18:35:29.251Z,99573.53
2018-05-12T18:37:56.744Z,99571.30
2018-05-12T18:40:24.307Z,99575.23
2018-05-12T18:42:51.946Z,99575.27
2018-05-12T18:45:19.414Z,99580.42
2018-05-12T18:47:46.899Z,99572.75
2018-05-12T18:50:14.377Z,99576.28
2018-05-12T18:52:41.914Z,99579.78
2018-05-12T18:55:09.800Z,99583.88
2018-05-12T18:57:37.318Z,99579.77
2018-05-12T19:00:04.786Z,99581.95
2018-05-12T19:02:32.266Z,99582.27
2018-05-12T19:04:59.745Z,99577.96
2018-05-12T19:07:27.293Z,99582.58
2018-05-12T19:09:54.789Z,99589.05
2018-05-12T19:12:22.281Z,99580.16
2018-05-12T19:14:49.765Z,99585.15
2018-05-12T19:17:18.238Z,99582.98
2018-05-12T19:19:45.735Z,99578.34
2018-05-12T19:22:13.224Z,99580.67
2018-05-12T19:24:40.770Z,99575.10
2018-05-12T19:27:08.225Z,99578.66
2018-05-12T19:29:35.962Z,99578.55
2018-05-12T19:32:03.793Z,99575.24
2018-05-12T19:34:31.315Z,99579.84
2018-05-12T19:36:58.794Z,99574.49
2018-05-12T19:39:26.314Z,99577.56
2018-05-12T19:41:53.781Z,99574.89
2018-05-12T19:44:21.322Z,99575.08
2018-05-12T19:46:48.910Z,99576.05
2018-05-12T19:49:16.360Z,99577.09
2018-05-12T19:51:43.840Z,99573.72
2018-05-12T19:54:11.317Z,99572.41
2018-05-12T19:56:38.785Z,99572.08
2018-05-12T19:59:06.648Z,99572.48
2018-05-12T20:01:34.134Z,99563.02
2018-05-12T20:04:01.697Z,99568.44
2018-05-12T20:06:29.221Z,99573.44
2018-05-12T20:08:56.724Z,99575.44
2018-05-12T20:11:24.189Z,99576.99
2018-05-12T20:13:51.909Z,99578.05
2018-05-12T20:16:19.391Z,99578.44
2018-05-12T20:18:46.952Z,99574.69
2018-05-12T20:21:14.534Z,99574.86
2018-05-12T20:23:42.254Z,99573.23
2018-05-12T20:26:09.807Z,99577.42
2018-05-12T20:28:37.378Z,99578.44
2018-05-12T20:31:04.884Z,99574.98
2018-05-12T20:33:32.448Z,99577.30
2018-05-12T20:35:59.913Z,99579.42
2018-05-12T20:38:27.642Z,99577.14
2018-05-12T20:40:55.122Z,99570.88
2018-05-12T20:43:22.631Z,99572.84
2018-05-12T20:45:50.106Z,99572.13
2018-05-12T20:48:17.581Z,99571.23
2018-05-12T20:50:45.099Z,99569.49
2018-05-12T20:53:12.582Z,99567.86
2018-05-12T20:55:40.114Z,99565.67
2018-05-12T20:58:07.639Z,99567.25
2018-05-12T21:00:35.130Z,99570.66
2018-05-12T21:03:02.598Z,99572.41
2018-05-12T21:05:32.093Z,99574.00
2018-05-12T21:07:59.589Z,99570.64
2018-05-12T21:10:27.078Z,99570.88
2018-05-12T21:12:54.894Z,99569.95
2018-05-12T21:15:22.399Z,99564.81
2018-05-12T21:17:49.902Z,99566.53
2018-05-12T21:20:17.385Z,99569.77
2018-05-12T21:22:44.872Z,99565.09
2018-05-12T21:25:12.413Z,99564.77
2018-05-12T21:27:39.870Z,99558.50
2018-05-12T21:30:07.586Z,99560.13
2018-05-12T21:32:35.064Z,99551.64
2018-05-12T21:35:02.566Z,99564.30
2018-05-12T21:37:30.438Z,99568.06
2018-05-12T21:39:57.939Z,99562.21
2018-05-12T21:42:25.456Z,99560.62
2018-05-12T21:44:52.961Z,99559.44
2018-05-12T21:47:20.450Z,99556.34
2018-05-12T21:49:47.964Z,99560.25
2018-05-12T21:52:17.456Z,99555.68
2018-05-12T21:54:44.975Z,99558.06
2018-05-12T21:57:12.505Z,99555.02
2018-05-12T21:59:40.008Z,99552.80
2018-05-12T22:02:07.551Z,99560.35
2018-05-12T22:04:35.018Z,99556.53
2018-05-12T22:07:02.570Z,99555.77
2018-05-12T22:09:30.261Z,99555.17
2018-05-12T22:11:57.799Z,99554.35
2018-05-12T22:14:25.277Z,99551.87
2018-05-12T22:16:52.787Z,99563.47
2018-05-12T22:19:20.283Z,99561.19
2018-05-12T22:21:47.777Z,99563.06
2018-05-12T22:24:15.267Z,99560.38
2018-05-12T22:26:42.762Z,99558.05
2018-05-12T22:29:10.230Z,99554.26
2018-05-12T22:31:37.730Z,99551.37
2018-05-12T22:34:05.212Z,99544.70
2018-05-12T22:36:33.293Z,99541.52
2018-05-12T22:39:00.806Z,99550.98
2018-05-12T22:41:28.299Z,99545.89
2018-05-12T22:43:55.832Z,99543.21
2018-05-12T22:46:23.358Z,99535.75
2018-05-12T22:48:50.873Z,99535.30
2018-05-12T22:51:18.453Z,99527.77
2018-05-12T22:53:46.011Z,99535.25
2018-05-12T22:56:13.917Z,99530.09
2018-05-12T22:58:41.473Z,99529.48
2018-05-12T23:01:09.035Z,99527.76
2018-05-12T23:03:36.542Z,99531.03
2018-05-12T23:06:04.034Z,99533.72
2018-05-12T23:08:31.558Z,99530.44
2018-05-12T23:10:59.275Z,99522.48
2018-05-12T23:13:26.792Z,99520.42
2018-05-12T23:15:54.342Z,99519.51
2018-05-12T23:18:21.894Z,99522.89
2018-05-12T23:20:49.438Z,99518.23
2018-05-12T23:23:16.958Z,99526.34
2018-05-12T23:25:44.474Z,99524.97
2018-05-12T23:28:11.967Z,99528.20
2018-05-12T23:30:39.429Z,99519.55
2018-05-12T23:33:06.988Z,99522.27
2018-05-12T23:35:34.498Z,99518.40
2018-05-12T23:38:02.031Z,99512.05
2018-05-12T23:40:29.525Z,99518.07
2018-05-12T23:42:57.036Z,99513.80
2018-05-12T23:45:24.539Z,99511.86
2018-05-12T23:47:52.066Z,99520.70
2018-05-12T23:50:19.610Z,99522.06
2018-05-12T23:52:47.134Z,99518.95
2018-05-12T23:55:14.635Z,99515.94
2018-05-12T23:57:42.145Z,99516.17
